Time,TemperatureF,DewpointF,PressureIn,WindDirection,WindDirectionDegrees,WindSpeedMPH,WindSpeedGustMPH,Humidity,HourlyPrecipIn,Conditions,Clouds,dailyrainin,SoftwareType,DateUTC
2013-09-09 00:00:00,85.3,52.9,29.85,SSW,199,3.6,3.6,33,0.00,CLR,CLR,0.04,WeatherDisplay:10.37,2013-09-09 05:00:00,
2013-09-09 00:05:00,85.1,52.8,29.85,South,184,4.0,4.0,33,0.00,CLR,CLR,0.00,WeatherDisplay:10.37,2013-09-09 05:05:00,
2013-09-09 00:10:00,85.3,52.9,29.85,SW,220,3.6,3.6,33,0.00,CLR,CLR,0.00,WeatherDisplay:10.37,2013-09-09 05:10:00,
2013-09-09 00:15:00,85.3,52.1,29.85,SSW,212,3.6,3.6,32,0.00,CLR,CLR,0.00,WeatherDisplay:10.37,2013-09-09 05:15:00,
2013-09-09 00:20:00,85.5,52.2,29.85,SW,224,4.0,4.0,32,0.00,CLR,CLR,0.00,WeatherDisplay:10.37,2013-09-09 05:20:00,
2013-09-09 00:25:00,85.5,52.2,29.85,SW,224,4.0,4.0,32,0.00,CLR,CLR,0.00,WeatherDisplay:10.37,2013-09-09 05:25:00,
2013-09-09 00:30:00,85.5,52.2,29.85,West,262,4.0,4.0,32,0.00,CLR,CLR,0.00,WeatherDisplay:10.37,2013-09-09 05:30:00,
2013-09-09 00:35:00,85.5,52.2,29.85,SSW,204,5.8,5.8,32,0.00,CLR,CLR,0.00,WeatherDisplay:10.37,2013-09-09 05:35:00,
2013-09-09 00:40:00,85.5,52.2,29.85,SSW,202,5.8,5.8,32,0.00,CLR,CLR,0.00,WeatherDisplay:10.37,2013-09-09 05:40:00,
2013-09-09 00:45:00,85.5,52.2,29.85,WSW,239,6.3,6.3,32,0.00,CLR,CLR,0.00,WeatherDisplay:10.37,2013-09-09 05:45:00,
2013-09-09 00:50:00,85.3,52.1,29.85,SW,219,4.0,4.0,32,0.00,CLR,CLR,0.00,WeatherDisplay:10.37,2013-09-09 05:50:00,
2013-09-09 00:55:00,85.1,51.9,29.85,SSW,193,4.0,4.0,32,0.00,CLR,CLR,0.00,WeatherDisplay:10.37,2013-09-09 05:55:00,
2013-09-09 01:00:00,84.9,51.8,29.85,SW,220,3.6,3.6,32,0.00,CLR,CLR,0.00,WeatherDisplay:10.37,2013-09-09 06:00:00,
2013-09-09 01:05:00,84.7,51.6,29.88,SW,232,3.4,3.4,32,0.00,CLR,CLR,0.00,WeatherDisplay:10.37,2013-09-09 06:05:00,
2013-09-09 01:10:00,84.6,51.5,29.88,SSW,200,5.8,5.8,32,0.00,CLR,CLR,0.00,WeatherDisplay:10.37,2013-09-09 06:10:00,
2013-09-09 01:15:00,84.4,51.3,29.88,SW,236,5.8,5.8,32,0.00,CLR,CLR,0.00,WeatherDisplay:10.37,2013-09-09 06:15:00,
2013-09-09 01:20:00,84.4,52.1,29.88,SW,233,4.0,4.0,33,0.00,CLR,CLR,0.00,WeatherDisplay:10.37,2013-09-09 06:20:00,
2013-09-09 01:25:00,84.2,52.0,29.88,SW,229,5.8,5.8,33,0.00,CLR,CLR,0.00,WeatherDisplay:10.37,2013-09-09 06:25:00,
2013-09-09 01:30:00,84.0,51.8,29.88,WSW,238,3.6,3.6,33,0.00,CLR,CLR,0.00,WeatherDisplay:10.37,2013-09-09 06:30:00,
2013-09-09 01:35:00,83.8,52.5,29.88,SSW,209,3.6,3.6,34,0.00,CLR,CLR,0.00,WeatherDisplay:10.37,2013-09-09 06:35:00,
2013-09-09 01:40:00,83.7,52.3,29.88,South,182,4.0,4.0,34,0.00,CLR,CLR,0.00,WeatherDisplay:10.37,2013-09-09 06:40:00,
2013-09-09 01:45:00,83.5,52.2,29.88,South,186,4.9,4.9,34,0.00,CLR,CLR,0.00,WeatherDisplay:10.37,2013-09-09 06:45:00,
2013-09-09 01:50:00,83.3,52.0,29.88,SW,214,4.0,4.0,34,0.00,CLR,CLR,0.00,WeatherDisplay:10.37,2013-09-09 06:50:00,
2013-09-09 01:55:00,83.1,51.8,29.88,SW,221,4.0,4.0,34,0.00,CLR,CLR,0.00,WeatherDisplay:10.37,2013-09-09 06:55:00,
2013-09-09 02:00:00,83.1,51.8,29.88,SW,216,4.6,4.6,34,0.00,CLR,CLR,0.00,WeatherDisplay:10.37,2013-09-09 07:00:00,
2013-09-09 02:05:00,82.9,52.5,29.88,SSW,208,4.0,4.0,35,0.00,CLR,CLR,0.00,WeatherDisplay:10.37,2013-09-09 07:05:00,
2013-09-09 02:10:00,82.8,52.3,29.88,SSW,208,4.0,4.0,35,0.00,CLR,CLR,0.00,WeatherDisplay:10.37,2013-09-09 07:10:00,
2013-09-09 02:15:00,82.6,52.2,29.88,South,182,5.8,5.8,35,0.00,CLR,CLR,0.00,WeatherDisplay:10.37,2013-09-09 07:15:00,
2013-09-09 02:20:00,82.6,52.2,29.88,SW,220,4.9,4.9,35,0.00,CLR,CLR,0.00,WeatherDisplay:10.37,2013-09-09 07:20:00,
2013-09-09 02:25:00,82.4,52.0,29.88,SSW,213,5.8,5.8,35,0.00,CLR,CLR,0.00,WeatherDisplay:10.37,2013-09-09 07:25:00,
2013-09-09 02:30:00,82.2,52.6,29.88,SSW,211,4.0,4.0,36,0.00,CLR,CLR,0.00,WeatherDisplay:10.37,2013-09-09 07:30:00,
2013-09-09 02:35:00,82.0,52.4,29.88,WSW,237,3.6,3.6,36,0.00,CLR,CLR,0.00,WeatherDisplay:10.37,2013-09-09 07:35:00,
2013-09-09 02:40:00,81.9,52.3,29.88,SSW,200,4.0,4.0,36,0.00,CLR,CLR,0.00,WeatherDisplay:10.37,2013-09-09 07:40:00,
2013-09-09 02:45:00,81.7,52.9,29.88,SW,235,4.9,4.9,37,0.00,CLR,CLR,0.00,WeatherDisplay:10.37,2013-09-09 07:45:00,
2013-09-09 02:50:00,81.5,52.7,29.88,WSW,248,5.8,5.8,37,0.00,CLR,CLR,0.00,WeatherDisplay:10.37,2013-09-09 07:50:00,
2013-09-09 02:55:00,81.5,52.7,29.88,SW,224,5.8,5.8,37,0.00,CLR,CLR,0.00,WeatherDisplay:10.37,2013-09-09 07:55:00,
2013-09-09 03:00:00,81.3,52.6,29.88,SW,235,5.4,5.4,37,0.00,CLR,CLR,0.00,WeatherDisplay:10.37,2013-09-09 08:00:00,
2013-09-09 03:05:00,81.1,52.4,29.88,WSW,240,4.0,4.0,37,0.00,CLR,CLR,0.00,WeatherDisplay:10.37,2013-09-09 08:05:00,
2013-09-09 03:10:00,81.1,53.1,29.88,WSW,247,5.4,5.4,38,0.00,CLR,CLR,0.00,WeatherDisplay:10.37,2013-09-09 08:10:00,
2013-09-09 03:15:00,81.0,53.0,29.88,SW,224,4.0,4.0,38,0.00,CLR,CLR,0.00,WeatherDisplay:10.37,2013-09-09 08:15:00,
2013-09-09 03:20:00,80.6,52.6,29.88,SW,227,4.0,4.0,38,0.00,CLR,CLR,0.00,WeatherDisplay:10.37,2013-09-09 08:20:00,
2013-09-09 03:25:00,80.4,53.2,29.88,SW,215,4.0,4.0,39,0.00,CLR,CLR,0.00,WeatherDisplay:10.37,2013-09-09 08:25:00,
2013-09-09 03:30:00,80.4,53.2,29.88,SW,222,4.6,4.6,39,0.00,CLR,CLR,0.00,WeatherDisplay:10.37,2013-09-09 08:30:00,
2013-09-09 03:35:00,80.2,53.7,29.88,SW,230,3.6,3.6,40,0.00,CLR,CLR,0.00,WeatherDisplay:10.37,2013-09-09 08:35:00,
2013-09-09 03:40:00,80.2,53.7,29.88,SW,220,3.6,3.6,40,0.00,CLR,CLR,0.00,WeatherDisplay:10.37,2013-09-09 08:40:00,
2013-09-09 03:45:00,80.1,53.6,29.88,SW,235,3.6,3.6,40,0.00,CLR,CLR,0.00,WeatherDisplay:10.37,2013-09-09 08:45:00,
2013-09-09 03:50:00,80.1,53.6,29.88,SW,228,3.4,3.4,40,0.00,CLR,CLR,0.00,WeatherDisplay:10.37,2013-09-09 08:50:00,
2013-09-09 03:55:00,79.9,53.4,29.88,SW,218,4.0,4.0,40,0.00,CLR,CLR,0.00,WeatherDisplay:10.37,2013-09-09 08:55:00,
2013-09-09 04:00:00,79.9,53.4,29.88,SW,232,3.6,3.6,40,0.00,CLR,CLR,0.00,WeatherDisplay:10.37,2013-09-09 09:00:00,
2013-09-09 04:05:00,79.7,53.2,29.88,SW,223,4.0,4.0,40,0.00,CLR,CLR,0.00,WeatherDisplay:10.37,2013-09-09 09:05:00,
2013-09-09 04:10:00,79.7,53.2,29.88,SW,235,7.2,7.2,40,0.00,CLR,CLR,0.00,WeatherDisplay:10.37,2013-09-09 09:10:00,
2013-09-09 04:15:00,79.5,53.1,29.88,SSW,198,4.0,4.0,40,0.00,CLR,CLR,0.00,WeatherDisplay:10.37,2013-09-09 09:15:00,
2013-09-09 04:20:00,79.5,53.8,29.88,SW,215,4.0,4.0,41,0.00,CLR,CLR,0.00,WeatherDisplay:10.37,2013-09-09 09:20:00,
2013-09-09 04:25:00,79.3,53.6,29.88,WSW,239,4.0,4.0,41,0.00,CLR,CLR,0.00,WeatherDisplay:10.37,2013-09-09 09:25:00,
2013-09-09 04:30:00,79.3,53.6,29.88,SW,217,4.0,4.0,41,0.00,CLR,CLR,0.00,WeatherDisplay:10.37,2013-09-09 09:30:00,
2013-09-09 04:35:00,79.2,53.4,29.88,SW,220,3.6,3.6,41,0.00,CLR,CLR,0.00,WeatherDisplay:10.37,2013-09-09 09:35:00,
2013-09-09 04:40:00,79.2,53.4,29.88,WSW,244,4.0,4.0,41,0.00,CLR,CLR,0.00,WeatherDisplay:10.37,2013-09-09 09:40:00,
2013-09-09 04:45:00,79.2,53.4,29.88,SW,227,3.6,3.6,41,0.00,CLR,CLR,0.00,WeatherDisplay:10.37,2013-09-09 09:45:00,
2013-09-09 04:50:00,79.2,53.4,29.88,WSW,238,4.0,4.0,41,0.00,CLR,CLR,0.00,WeatherDisplay:10.37,2013-09-09 09:50:00,
2013-09-09 04:55:00,79.0,53.3,29.88,SW,230,3.4,3.4,41,0.00,CLR,CLR,0.00,WeatherDisplay:10.37,2013-09-09 09:55:00,
2013-09-09 05:00:00,79.0,53.3,29.88,WSW,244,3.6,3.6,41,0.00,CLR,CLR,0.00,WeatherDisplay:10.37,2013-09-09 10:00:00,
2013-09-09 05:05:00,78.8,53.1,29.88,SW,224,3.6,3.6,41,0.00,CLR,CLR,0.00,WeatherDisplay:10.37,2013-09-09 10:05:00,
2013-09-09 05:10:00,78.8,53.1,29.88,SW,222,4.0,4.0,41,0.00,CLR,CLR,0.00,WeatherDisplay:10.37,2013-09-09 10:10:00,
2013-09-09 05:15:00,78.8,53.1,29.88,SW,226,4.6,4.6,41,0.00,CLR,CLR,0.00,WeatherDisplay:10.37,2013-09-09 10:15:00,
2013-09-09 05:20:00,79.0,53.3,29.88,SW,219,4.0,4.0,41,0.00,CLR,CLR,0.00,WeatherDisplay:10.37,2013-09-09 10:20:00,
2013-09-09 05:25:00,79.0,53.3,29.88,SW,230,4.0,4.0,41,0.00,CLR,CLR,0.00,WeatherDisplay:10.37,2013-09-09 10:25:00,
2013-09-09 05:30:00,79.2,53.4,29.88,SW,217,3.6,3.6,41,0.00,CLR,CLR,0.00,WeatherDisplay:10.37,2013-09-09 10:30:00,
2013-09-09 05:35:00,79.2,53.4,29.88,SW,231,4.0,4.0,41,0.00,CLR,CLR,0.00,WeatherDisplay:10.37,2013-09-09 10:35:00,
2013-09-09 05:40:00,79.2,53.4,29.88,SW,231,5.8,5.8,41,0.00,CLR,CLR,0.00,WeatherDisplay:10.37,2013-09-09 10:40:00,
2013-09-09 05:45:00,79.2,53.4,29.88,SW,231,4.9,4.9,41,0.00,CLR,CLR,0.00,WeatherDisplay:10.37,2013-09-09 10:45:00,
2013-09-09 05:50:00,79.0,53.3,29.88,SW,230,4.0,4.0,41,0.00,CLR,CLR,0.00,WeatherDisplay:10.37,2013-09-09 10:50:00,
2013-09-09 05:55:00,79.0,53.3,29.88,SW,224,3.6,3.6,41,0.00,CLR,CLR,0.00,WeatherDisplay:10.37,2013-09-09 10:55:00,
2013-09-09 06:00:00,79.0,53.3,29.88,SW,230,4.0,4.0,41,0.00,CLR,CLR,0.00,WeatherDisplay:10.37,2013-09-09 11:00:00,
2013-09-09 06:05:00,79.0,53.3,29.88,SW,224,5.8,5.8,41,0.00,CLR,CLR,0.00,WeatherDisplay:10.37,2013-09-09 11:05:00,
2013-09-09 06:10:00,79.0,53.3,29.88,SW,224,3.4,3.4,41,0.00,CLR,CLR,0.00,WeatherDisplay:10.37,2013-09-09 11:10:00,
2013-09-09 06:15:00,78.8,53.1,29.88,SW,232,3.6,3.6,41,0.00,CLR,CLR,0.00,WeatherDisplay:10.37,2013-09-09 11:15:00,
2013-09-09 06:20:00,78.6,52.9,29.88,South,176,3.6,3.6,41,0.00,CLR,CLR,0.00,WeatherDisplay:10.37,2013-09-09 11:20:00,
2013-09-09 06:25:00,78.6,53.6,29.88,SW,230,3.4,3.4,42,0.00,CLR,CLR,0.00,WeatherDisplay:10.37,2013-09-09 11:25:00,
2013-09-09 06:30:00,78.4,53.4,29.88,SW,219,3.4,3.4,42,0.00,CLR,CLR,0.00,WeatherDisplay:10.37,2013-09-09 11:30:00,
2013-09-09 06:35:00,78.4,53.4,29.88,West,260,3.4,3.4,42,0.00,CLR,CLR,0.00,WeatherDisplay:10.37,2013-09-09 11:35:00,
2013-09-09 06:40:00,78.3,53.3,29.88,SW,219,3.4,3.4,42,0.00,CLR,CLR,0.00,WeatherDisplay:10.37,2013-09-09 11:40:00,
2013-09-09 06:45:00,78.3,53.3,29.88,SW,223,3.4,3.4,42,0.00,CLR,CLR,0.00,WeatherDisplay:10.37,2013-09-09 11:45:00,
2013-09-09 06:50:00,78.1,53.1,29.88,SW,225,3.4,3.4,42,0.00,CLR,CLR,0.00,WeatherDisplay:10.37,2013-09-09 11:50:00,
2013-09-09 06:55:00,77.9,53.0,29.88,South,182,3.4,3.4,42,0.00,CLR,CLR,0.00,WeatherDisplay:10.37,2013-09-09 11:55:00,
2013-09-09 07:00:00,77.9,53.6,29.88,SW,223,3.4,3.4,43,0.00,CLR,CLR,0.00,WeatherDisplay:10.37,2013-09-09 12:00:00,
2013-09-09 07:05:00,77.9,53.6,29.91,SSW,201,3.4,3.4,43,0.00,CLR,CLR,0.00,WeatherDisplay:10.37,2013-09-09 12:05:00,
2013-09-09 07:10:00,77.9,53.6,29.91,SSW,211,3.6,3.6,43,0.00,CLR,CLR,0.00,WeatherDisplay:10.37,2013-09-09 12:10:00,
2013-09-09 07:15:00,77.9,53.0,29.91,SSW,198,3.6,3.6,42,0.00,CLR,CLR,0.00,WeatherDisplay:10.37,2013-09-09 12:15:00,
2013-09-09 07:20:00,77.9,53.0,29.91,SW,223,4.0,4.0,42,0.00,CLR,CLR,0.00,WeatherDisplay:10.37,2013-09-09 12:20:00,
2013-09-09 07:25:00,78.1,53.1,29.91,WSW,240,3.6,3.6,42,0.00,CLR,CLR,0.00,WeatherDisplay:10.37,2013-09-09 12:25:00,
2013-09-09 07:30:00,78.3,53.3,29.91,SSW,204,4.0,4.0,42,0.00,CLR,CLR,0.00,WeatherDisplay:10.37,2013-09-09 12:30:00,
2013-09-09 07:35:00,78.3,53.3,29.91,SSW,197,3.6,3.6,42,0.00,CLR,CLR,0.00,WeatherDisplay:10.37,2013-09-09 12:35:00,
2013-09-09 07:40:00,78.3,53.3,29.91,SSW,209,3.6,3.6,42,0.00,CLR,CLR,0.00,WeatherDisplay:10.37,2013-09-09 12:40:00,
2013-09-09 07:45:00,78.4,53.4,29.91,SW,226,4.9,4.9,42,0.00,CLR,CLR,0.00,WeatherDisplay:10.37,2013-09-09 12:45:00,
2013-09-09 07:50:00,78.4,53.4,29.91,SW,228,4.0,4.0,42,0.00,CLR,CLR,0.00,WeatherDisplay:10.37,2013-09-09 12:50:00,
2013-09-09 07:55:00,78.4,53.4,29.91,SSW,204,4.6,4.6,42,0.00,CLR,CLR,0.00,WeatherDisplay:10.37,2013-09-09 12:55:00,
2013-09-09 08:00:00,78.6,52.9,29.91,WSW,249,4.0,4.0,41,0.00,CLR,CLR,0.00,WeatherDisplay:10.37,2013-09-09 13:00:00,
2013-09-09 08:05:00,78.6,52.9,29.91,WSW,237,3.6,3.6,41,0.00,CLR,CLR,0.00,WeatherDisplay:10.37,2013-09-09 13:05:00,
2013-09-09 08:10:00,78.8,53.1,29.91,South,173,5.8,5.8,41,0.00,CLR,CLR,0.00,WeatherDisplay:10.37,2013-09-09 13:10:00,
2013-09-09 08:15:00,79.0,53.3,29.91,SSW,199,4.9,4.9,41,0.00,CLR,CLR,0.00,WeatherDisplay:10.37,2013-09-09 13:15:00,
2013-09-09 08:20:00,79.0,53.3,29.91,SW,218,4.0,4.0,41,0.00,CLR,CLR,0.00,WeatherDisplay:10.37,2013-09-09 13:20:00,
2013-09-09 08:25:00,79.0,53.3,29.91,WSW,239,4.0,4.0,41,0.00,CLR,CLR,0.00,WeatherDisplay:10.37,2013-09-09 13:25:00,
2013-09-09 08:30:00,79.3,53.6,29.91,SW,229,4.0,4.0,41,0.00,CLR,CLR,0.00,WeatherDisplay:10.37,2013-09-09 13:30:00,
2013-09-09 08:35:00,79.3,53.6,29.91,SW,222,4.0,4.0,41,0.00,CLR,CLR,0.00,WeatherDisplay:10.37,2013-09-09 13:35:00,
2013-09-09 08:40:00,79.5,53.8,29.91,SSW,193,5.4,5.4,41,0.00,CLR,CLR,0.00,WeatherDisplay:10.37,2013-09-09 13:40:00,
2013-09-09 08:45:00,79.7,53.2,29.91,South,188,5.8,5.8,40,0.00,CLR,CLR,0.00,WeatherDisplay:10.37,2013-09-09 13:45:00,
2013-09-09 08:50:00,79.9,53.4,29.91,WSW,238,4.6,4.6,40,0.00,CLR,CLR,0.00,WeatherDisplay:10.37,2013-09-09 13:50:00,
2013-09-09 08:55:00,80.2,53.7,29.91,WSW,247,4.9,4.9,40,0.00,CLR,CLR,0.00,WeatherDisplay:10.37,2013-09-09 13:55:00,
2013-09-09 09:00:00,80.4,53.9,29.91,SW,231,5.8,5.8,40,0.00,CLR,CLR,0.00,WeatherDisplay:10.37,2013-09-09 14:00:00,
2013-09-09 09:05:00,80.8,53.5,29.91,South,176,5.8,5.8,39,0.00,CLR,CLR,0.00,WeatherDisplay:10.37,2013-09-09 14:05:00,
2013-09-09 09:10:00,81.1,53.8,29.91,South,190,4.6,4.6,39,0.00,CLR,CLR,0.00,WeatherDisplay:10.37,2013-09-09 14:10:00,
2013-09-09 09:15:00,81.5,53.4,29.91,SW,235,3.6,3.6,38,0.00,CLR,CLR,0.00,WeatherDisplay:10.37,2013-09-09 14:15:00,
2013-09-09 09:20:00,81.9,53.8,29.91,SW,228,8.7,8.7,38,0.00,CLR,CLR,0.00,WeatherDisplay:10.37,2013-09-09 14:20:00,
2013-09-09 09:25:00,82.2,54.1,29.91,WSW,239,3.6,3.6,38,0.00,CLR,CLR,0.00,WeatherDisplay:10.37,2013-09-09 14:25:00,
2013-09-09 09:30:00,82.6,52.9,29.91,SSW,194,6.3,6.3,36,0.00,CLR,CLR,0.00,WeatherDisplay:10.37,2013-09-09 14:30:00,
2013-09-09 09:35:00,82.8,53.1,29.94,WSW,245,8.1,8.1,36,0.00,CLR,CLR,0.00,WeatherDisplay:10.37,2013-09-09 14:35:00,
2013-09-09 09:40:00,83.1,52.6,29.94,SSW,194,6.3,6.3,35,0.00,CLR,CLR,0.00,WeatherDisplay:10.37,2013-09-09 14:40:00,
2013-09-09 09:45:00,83.3,52.0,29.94,SW,218,5.8,5.8,34,0.00,CLR,CLR,0.00,WeatherDisplay:10.37,2013-09-09 14:45:00,
2013-09-09 09:50:00,83.7,52.3,29.94,SW,225,3.6,3.6,34,0.00,CLR,CLR,0.00,WeatherDisplay:10.37,2013-09-09 14:50:00,
2013-09-09 09:55:00,84.0,53.4,29.94,WSW,240,5.8,5.8,35,0.00,CLR,CLR,0.00,WeatherDisplay:10.37,2013-09-09 14:55:00,
2013-09-09 10:00:00,84.6,53.1,29.94,SW,222,3.4,3.4,34,0.00,CLR,CLR,0.00,WeatherDisplay:10.37,2013-09-09 15:00:00,
2013-09-09 10:05:00,84.9,52.6,29.94,West,268,3.4,3.4,33,0.00,CLR,CLR,0.00,WeatherDisplay:10.37,2013-09-09 15:05:00,
2013-09-09 10:10:00,85.1,52.8,29.94,WSW,253,8.1,8.1,33,0.00,CLR,CLR,0.00,WeatherDisplay:10.37,2013-09-09 15:10:00,
2013-09-09 10:15:00,85.3,52.1,29.94,WSW,257,5.8,5.8,32,0.00,CLR,CLR,0.00,WeatherDisplay:10.37,2013-09-09 15:15:00,
2013-09-09 10:20:00,85.6,53.2,29.94,SSW,207,4.0,4.0,33,0.00,CLR,CLR,0.00,WeatherDisplay:10.37,2013-09-09 15:20:00,
2013-09-09 10:25:00,86.0,52.7,29.94,WSW,251,3.6,3.6,32,0.00,CLR,CLR,0.00,WeatherDisplay:10.37,2013-09-09 15:25:00,
2013-09-09 10:30:00,86.5,53.2,29.94,SW,217,6.3,6.3,32,0.00,CLR,CLR,0.00,WeatherDisplay:10.37,2013-09-09 15:30:00,
2013-09-09 10:35:00,86.7,52.5,29.94,SW,222,8.1,8.1,31,0.00,CLR,CLR,0.00,WeatherDisplay:10.37,2013-09-09 15:35:00,
2013-09-09 10:40:00,87.1,52.8,29.94,WSW,239,4.0,4.0,31,0.00,CLR,CLR,0.00,WeatherDisplay:10.37,2013-09-09 15:40:00,
2013-09-09 10:45:00,87.6,53.2,29.94,SSW,211,4.0,4.0,31,0.00,CLR,CLR,0.00,WeatherDisplay:10.37,2013-09-09 15:45:00,
2013-09-09 10:50:00,88.0,52.7,29.94,SW,223,6.3,6.3,30,0.00,CLR,CLR,0.00,WeatherDisplay:10.37,2013-09-09 15:50:00,
2013-09-09 10:55:00,88.3,53.0,29.94,SSW,210,5.8,5.8,30,0.00,CLR,CLR,0.00,WeatherDisplay:10.37,2013-09-09 15:55:00,
2013-09-09 11:00:00,88.7,53.3,29.94,SW,223,5.4,5.4,30,0.00,CLR,CLR,0.00,WeatherDisplay:10.37,2013-09-09 16:00:00,
2013-09-09 11:05:00,89.2,52.8,29.94,WSW,254,5.8,5.8,29,0.00,CLR,CLR,0.00,WeatherDisplay:10.37,2013-09-09 16:05:00,
2013-09-09 11:10:00,89.6,53.1,29.94,WSW,238,5.8,5.8,29,0.00,CLR,CLR,0.00,WeatherDisplay:10.37,2013-09-09 16:10:00,
2013-09-09 11:15:00,90.0,52.5,29.94,WSW,243,5.4,5.4,28,0.00,CLR,CLR,0.00,WeatherDisplay:10.37,2013-09-09 16:15:00,
2013-09-09 11:20:00,90.5,52.9,29.94,NW,324,6.3,6.3,28,0.00,CLR,CLR,0.00,WeatherDisplay:10.37,2013-09-09 16:20:00,
2013-09-09 11:25:00,90.7,53.1,29.94,NW,304,5.8,5.8,28,0.00,CLR,CLR,0.00,WeatherDisplay:10.37,2013-09-09 16:25:00,
2013-09-09 11:30:00,91.2,53.6,29.94,WSW,252,6.3,6.3,28,0.00,CLR,CLR,0.00,WeatherDisplay:10.37,2013-09-09 16:30:00,
2013-09-09 11:35:00,91.2,53.6,29.94,West,278,5.8,5.8,28,0.00,CLR,CLR,0.00,WeatherDisplay:10.37,2013-09-09 16:35:00,
2013-09-09 11:40:00,91.6,52.9,29.94,WSW,252,5.8,5.8,27,0.00,CLR,CLR,0.00,WeatherDisplay:10.37,2013-09-09 16:40:00,
2013-09-09 11:45:00,91.8,53.0,29.94,SW,235,8.1,8.1,27,0.00,CLR,CLR,0.00,WeatherDisplay:10.37,2013-09-09 16:45:00,
2013-09-09 11:50:00,92.1,53.3,29.94,SSW,202,8.1,8.1,27,0.00,CLR,CLR,0.00,WeatherDisplay:10.37,2013-09-09 16:50:00,
2013-09-09 11:55:00,92.5,53.6,29.94,WSW,241,5.8,5.8,27,0.00,CLR,CLR,0.00,WeatherDisplay:10.37,2013-09-09 16:55:00,
2013-09-09 12:00:00,92.5,53.6,29.94,South,181,5.8,5.8,27,0.00,CLR,CLR,0.00,WeatherDisplay:10.37,2013-09-09 17:00:00,
2013-09-09 12:05:00,92.7,53.8,29.91,South,190,8.1,8.1,27,0.00,CLR,CLR,0.00,WeatherDisplay:10.37,2013-09-09 17:05:00,
2013-09-09 12:10:00,92.8,52.9,29.91,SW,214,8.1,8.1,26,0.00,CLR,CLR,0.00,WeatherDisplay:10.37,2013-09-09 17:10:00,
2013-09-09 12:15:00,93.0,54.1,29.91,South,187,6.3,6.3,27,0.00,CLR,CLR,0.00,WeatherDisplay:10.37,2013-09-09 17:15:00,
2013-09-09 12:20:00,93.4,53.4,29.91,West,277,4.0,4.0,26,0.00,CLR,CLR,0.00,WeatherDisplay:10.37,2013-09-09 17:20:00,
2013-09-09 12:25:00,94.1,52.9,29.91,South,187,9.2,9.2,25,0.00,CLR,CLR,0.00,WeatherDisplay:10.37,2013-09-09 17:25:00,
2013-09-09 12:30:00,94.5,50.9,29.91,South,188,11.5,11.5,23,0.00,CLR,CLR,0.00,WeatherDisplay:10.37,2013-09-09 17:30:00,
2013-09-09 12:35:00,94.5,52.1,29.91,South,182,6.3,6.3,24,0.00,CLR,CLR,0.00,WeatherDisplay:10.37,2013-09-09 17:35:00,
2013-09-09 12:40:00,94.5,50.9,29.91,West,266,8.1,8.1,23,0.00,CLR,CLR,0.00,WeatherDisplay:10.37,2013-09-09 17:40:00,
2013-09-09 12:45:00,94.8,51.2,29.91,SSW,204,9.2,9.2,23,0.00,CLR,CLR,0.00,WeatherDisplay:10.37,2013-09-09 17:45:00,
2013-09-09 12:50:00,94.8,50.0,29.91,South,175,8.1,8.1,22,0.00,CLR,CLR,0.00,WeatherDisplay:10.37,2013-09-09 17:50:00,
2013-09-09 12:55:00,95.2,50.3,29.91,NNW,330,8.7,8.7,22,0.00,CLR,CLR,0.00,WeatherDisplay:10.37,2013-09-09 17:55:00,
2013-09-09 13:00:00,95.4,50.5,29.91,SW,223,6.9,6.9,22,0.00,CLR,CLR,0.00,WeatherDisplay:10.37,2013-09-09 18:00:00,
2013-09-09 13:05:00,95.4,49.2,29.91,South,190,10.3,10.3,21,0.00,CLR,CLR,0.00,WeatherDisplay:10.37,2013-09-09 18:05:00,
2013-09-09 13:10:00,95.5,49.4,29.91,SW,233,8.1,8.1,21,0.00,CLR,CLR,0.00,WeatherDisplay:10.37,2013-09-09 18:10:00,
2013-09-09 13:15:00,95.5,49.4,29.91,SSW,196,6.3,6.3,21,0.00,CLR,CLR,0.00,WeatherDisplay:10.37,2013-09-09 18:15:00,
2013-09-09 13:20:00,95.9,48.4,29.91,SSW,211,5.8,5.8,20,0.00,CLR,CLR,0.00,WeatherDisplay:10.37,2013-09-09 18:20:00,
2013-09-09 13:25:00,96.1,48.5,29.91,SW,220,8.1,8.1,20,0.00,CLR,CLR,0.00,WeatherDisplay:10.37,2013-09-09 18:25:00,
2013-09-09 13:30:00,95.9,48.4,29.91,SW,223,5.8,5.8,20,0.00,CLR,CLR,0.00,WeatherDisplay:10.37,2013-09-09 18:30:00,
2013-09-09 13:35:00,96.4,48.8,29.91,SW,220,9.2,9.2,20,0.00,CLR,CLR,0.00,WeatherDisplay:10.37,2013-09-09 18:35:00,
2013-09-09 13:40:00,96.6,49.0,29.91,SSW,193,10.3,10.3,20,0.00,CLR,CLR,0.00,WeatherDisplay:10.37,2013-09-09 18:40:00,
2013-09-09 13:45:00,96.3,48.7,29.91,West,262,8.1,8.1,20,0.00,CLR,CLR,0.00,WeatherDisplay:10.37,2013-09-09 18:45:00,
2013-09-09 13:50:00,96.4,48.8,29.91,SSE,161,8.3,8.3,20,0.00,CLR,CLR,0.00,WeatherDisplay:10.37,2013-09-09 18:50:00,
2013-09-09 13:55:00,96.6,49.0,29.91,SSW,211,10.5,10.5,20,0.00,CLR,CLR,0.00,WeatherDisplay:10.37,2013-09-09 18:55:00,
2013-09-09 14:00:00,96.8,47.7,29.91,SW,226,9.2,9.2,19,0.00,CLR,CLR,0.00,WeatherDisplay:10.37,2013-09-09 19:00:00,
2013-09-09 14:05:00,96.6,47.6,29.91,SW,221,8.1,8.1,19,0.00,CLR,CLR,0.00,WeatherDisplay:10.37,2013-09-09 19:05:00,
2013-09-09 14:10:00,96.4,47.5,29.91,SSW,193,8.1,8.1,19,0.00,CLR,CLR,0.00,WeatherDisplay:10.37,2013-09-09 19:10:00,
2013-09-09 14:15:00,96.6,47.6,29.91,SW,224,8.1,8.1,19,0.00,CLR,CLR,0.00,WeatherDisplay:10.37,2013-09-09 19:15:00,
2013-09-09 14:20:00,97.0,47.9,29.91,SW,232,9.2,9.2,19,0.00,CLR,CLR,0.00,WeatherDisplay:10.37,2013-09-09 19:20:00,
2013-09-09 14:25:00,96.8,46.3,29.91,SSW,202,10.3,10.3,18,0.00,CLR,CLR,0.00,WeatherDisplay:10.37,2013-09-09 19:25:00,
2013-09-09 14:30:00,97.2,48.0,29.91,South,175,10.9,10.9,19,0.00,CLR,CLR,0.00,WeatherDisplay:10.37,2013-09-09 19:30:00,
2013-09-09 14:35:00,97.2,46.6,29.88,SSW,196,8.3,8.3,18,0.00,CLR,CLR,0.00,WeatherDisplay:10.37,2013-09-09 19:35:00,
2013-09-09 14:40:00,97.3,46.7,29.88,WSW,252,5.8,5.8,18,0.00,CLR,CLR,0.00,WeatherDisplay:10.37,2013-09-09 19:40:00,
2013-09-09 14:45:00,97.7,47.0,29.88,WSW,245,8.1,8.1,18,0.00,CLR,CLR,0.00,WeatherDisplay:10.37,2013-09-09 19:45:00,
2013-09-09 14:50:00,97.9,47.2,29.88,SSW,203,12.6,12.6,18,0.00,CLR,CLR,0.00,WeatherDisplay:10.37,2013-09-09 19:50:00,
2013-09-09 14:55:00,97.5,46.9,29.88,WSW,254,6.3,6.3,18,0.00,CLR,CLR,0.00,WeatherDisplay:10.37,2013-09-09 19:55:00,
2013-09-09 15:00:00,97.5,46.9,29.88,SSW,207,10.3,10.3,18,0.00,CLR,CLR,0.00,WeatherDisplay:10.37,2013-09-09 20:00:00,
2013-09-09 15:05:00,97.5,46.9,29.88,SSW,193,8.1,8.1,18,0.00,CLR,CLR,0.00,WeatherDisplay:10.37,2013-09-09 20:05:00,
2013-09-09 15:10:00,97.5,45.4,29.88,SSW,205,8.1,8.1,17,0.00,CLR,CLR,0.00,WeatherDisplay:10.37,2013-09-09 20:10:00,
2013-09-09 15:15:00,97.3,45.2,29.88,SW,232,6.3,6.3,17,0.00,CLR,CLR,0.00,WeatherDisplay:10.37,2013-09-09 20:15:00,
2013-09-09 15:20:00,97.5,45.4,29.88,SSW,197,10.5,10.5,17,0.00,CLR,CLR,0.00,WeatherDisplay:10.37,2013-09-09 20:20:00,
2013-09-09 15:25:00,97.9,45.7,29.88,South,185,6.3,6.3,17,0.00,CLR,CLR,0.00,WeatherDisplay:10.37,2013-09-09 20:25:00,
2013-09-09 15:30:00,97.7,45.5,29.88,SSW,194,8.1,8.1,17,0.00,CLR,CLR,0.00,WeatherDisplay:10.37,2013-09-09 20:30:00,
2013-09-09 15:35:00,97.5,45.4,29.88,South,186,5.8,5.8,17,0.00,CLR,CLR,0.00,WeatherDisplay:10.37,2013-09-09 20:35:00,
2013-09-09 15:40:00,97.7,47.0,29.88,WSW,239,6.3,6.3,18,0.00,CLR,CLR,0.00,WeatherDisplay:10.37,2013-09-09 20:40:00,
2013-09-09 15:45:00,97.9,47.2,29.88,SSE,167,8.3,8.3,18,0.00,CLR,CLR,0.00,WeatherDisplay:10.37,2013-09-09 20:45:00,
2013-09-09 15:50:00,97.9,45.7,29.88,WSW,246,8.1,8.1,17,0.00,CLR,CLR,0.00,WeatherDisplay:10.37,2013-09-09 20:50:00,
2013-09-09 15:55:00,97.5,45.4,29.88,South,182,7.6,7.6,17,0.00,CLR,CLR,0.00,WeatherDisplay:10.37,2013-09-09 20:55:00,
2013-09-09 16:00:00,97.2,45.1,29.88,SSW,194,6.3,6.3,17,0.00,CLR,CLR,0.00,WeatherDisplay:10.37,2013-09-09 21:00:00,
2013-09-09 16:05:00,97.0,44.9,29.88,SSW,209,8.1,8.1,17,0.00,CLR,CLR,0.00,WeatherDisplay:10.37,2013-09-09 21:05:00,
2013-09-09 16:10:00,96.8,44.8,29.88,SSW,204,8.7,8.7,17,0.00,CLR,CLR,0.00,WeatherDisplay:10.37,2013-09-09 21:10:00,
2013-09-09 16:15:00,97.0,44.9,29.88,WSW,241,12.3,12.3,17,0.00,CLR,CLR,0.00,WeatherDisplay:10.37,2013-09-09 21:15:00,
2013-09-09 16:20:00,97.0,44.9,29.88,SW,223,10.3,10.3,17,0.00,CLR,CLR,0.00,WeatherDisplay:10.37,2013-09-09 21:20:00,
2013-09-09 16:25:00,96.8,44.8,29.88,West,276,8.1,8.1,17,0.00,CLR,CLR,0.00,WeatherDisplay:10.37,2013-09-09 21:25:00,
2013-09-09 16:30:00,97.2,45.1,29.88,WSW,249,8.3,8.3,17,0.00,CLR,CLR,0.00,WeatherDisplay:10.37,2013-09-09 21:30:00,
2013-09-09 16:35:00,97.2,45.1,29.88,SW,234,6.3,6.3,17,0.00,CLR,CLR,0.00,WeatherDisplay:10.37,2013-09-09 21:35:00,
2013-09-09 16:40:00,97.2,45.1,29.88,WSW,243,10.3,10.3,17,0.00,CLR,CLR,0.00,WeatherDisplay:10.37,2013-09-09 21:40:00,
2013-09-09 16:45:00,97.0,44.9,29.88,SW,226,6.9,6.9,17,0.00,CLR,CLR,0.00,WeatherDisplay:10.37,2013-09-09 21:45:00,
2013-09-09 16:50:00,97.0,44.9,29.88,SSW,208,8.0,8.0,17,0.00,CLR,CLR,0.00,WeatherDisplay:10.37,2013-09-09 21:50:00,
2013-09-09 16:55:00,96.6,46.2,29.88,WNW,286,6.3,6.3,18,0.00,CLR,CLR,0.00,WeatherDisplay:10.37,2013-09-09 21:55:00,
2013-09-09 17:00:00,97.0,44.9,29.88,South,188,9.2,9.2,17,0.00,CLR,CLR,0.00,WeatherDisplay:10.37,2013-09-09 22:00:00,
2013-09-09 17:05:00,96.6,44.7,29.88,South,191,11.8,11.8,17,0.00,CLR,CLR,0.00,WeatherDisplay:10.37,2013-09-09 22:05:00,
2013-09-09 17:10:00,96.4,44.5,29.88,SW,234,6.3,6.3,17,0.00,CLR,CLR,0.00,WeatherDisplay:10.37,2013-09-09 22:10:00,
2013-09-09 17:15:00,96.4,44.5,29.88,South,189,5.8,5.8,17,0.00,CLR,CLR,0.00,WeatherDisplay:10.37,2013-09-09 22:15:00,
2013-09-09 17:20:00,96.8,44.8,29.88,South,190,8.1,8.1,17,0.00,CLR,CLR,0.00,WeatherDisplay:10.37,2013-09-09 22:20:00,
2013-09-09 17:25:00,96.8,44.8,29.88,SSE,168,8.1,8.1,17,0.00,CLR,CLR,0.00,WeatherDisplay:10.37,2013-09-09 22:25:00,
2013-09-09 17:30:00,96.3,45.9,29.88,SSW,196,10.1,10.1,18,0.00,CLR,CLR,0.00,WeatherDisplay:10.37,2013-09-09 22:30:00,
2013-09-09 17:35:00,95.5,45.3,29.88,SSW,211,8.0,8.0,18,0.00,CLR,CLR,0.00,WeatherDisplay:10.37,2013-09-09 22:35:00,
2013-09-09 17:40:00,94.8,44.7,29.88,SSW,209,7.6,7.6,18,0.00,CLR,CLR,0.00,WeatherDisplay:10.37,2013-09-09 22:40:00,
2013-09-09 17:45:00,94.5,44.4,29.88,South,181,9.2,9.2,18,0.00,CLR,CLR,0.00,WeatherDisplay:10.37,2013-09-09 22:45:00,
2013-09-09 17:50:00,94.1,44.1,29.88,SSW,208,9.2,9.2,18,0.00,CLR,CLR,0.00,WeatherDisplay:10.37,2013-09-09 22:50:00,
2013-09-09 17:55:00,93.7,43.8,29.88,WSW,242,10.5,10.5,18,0.00,CLR,CLR,0.00,WeatherDisplay:10.37,2013-09-09 22:55:00,
2013-09-09 18:00:00,93.4,43.5,29.88,WSW,237,5.8,5.8,18,0.00,CLR,CLR,0.00,WeatherDisplay:10.37,2013-09-09 23:00:00,
2013-09-09 18:05:00,93.2,43.4,29.88,SW,222,9.2,9.2,18,0.00,CLR,CLR,0.00,WeatherDisplay:10.37,2013-09-09 23:05:00,
2013-09-09 18:10:00,93.0,44.7,29.88,WSW,252,8.3,8.3,19,0.00,CLR,CLR,0.00,WeatherDisplay:10.37,2013-09-09 23:10:00,
2013-09-09 18:15:00,92.8,44.5,29.88,SSW,205,5.8,5.8,19,0.00,CLR,CLR,0.00,WeatherDisplay:10.37,2013-09-09 23:15:00,
2013-09-09 18:20:00,92.7,44.4,29.88,SW,216,5.8,5.8,19,0.00,CLR,CLR,0.00,WeatherDisplay:10.37,2013-09-09 23:20:00,
2013-09-09 18:25:00,92.5,44.2,29.88,SW,233,4.9,4.9,19,0.00,CLR,CLR,0.00,WeatherDisplay:10.37,2013-09-09 23:25:00,
2013-09-09 18:30:00,92.3,45.4,29.88,South,189,6.9,6.9,20,0.00,CLR,CLR,0.00,WeatherDisplay:10.37,2013-09-09 23:30:00,
2013-09-09 18:35:00,91.9,45.1,29.88,SW,225,5.4,5.4,20,0.00,CLR,CLR,0.00,WeatherDisplay:10.37,2013-09-09 23:35:00,
2013-09-09 18:40:00,91.8,43.6,29.88,WSW,245,5.8,5.8,19,0.00,CLR,CLR,0.00,WeatherDisplay:10.37,2013-09-09 23:40:00,
2013-09-09 18:45:00,91.8,43.6,29.88,SSW,208,5.8,5.8,19,0.00,CLR,CLR,0.00,WeatherDisplay:10.37,2013-09-09 23:45:00,
2013-09-09 18:50:00,91.6,43.5,29.88,SSE,164,5.8,5.8,19,0.00,CLR,CLR,0.00,WeatherDisplay:10.37,2013-09-09 23:50:00,
2013-09-09 18:55:00,91.4,43.3,29.88,SSW,196,6.9,6.9,19,0.00,CLR,CLR,0.00,WeatherDisplay:10.37,2013-09-09 23:55:00,
2013-09-09 19:00:00,90.9,44.2,29.88,SSW,196,6.3,6.3,20,0.00,CLR,CLR,0.00,WeatherDisplay:10.37,2013-09-10 00:00:00,
2013-09-09 19:05:00,90.3,43.8,29.88,SSW,199,5.4,5.4,20,0.00,CLR,CLR,0.00,WeatherDisplay:10.37,2013-09-10 00:05:00,
2013-09-09 19:10:00,89.6,43.2,29.88,SW,233,4.0,4.0,20,0.00,CLR,CLR,0.00,WeatherDisplay:10.37,2013-09-10 00:10:00,
2013-09-09 19:15:00,88.9,43.9,29.88,SSW,205,4.6,4.6,21,0.00,CLR,CLR,0.00,WeatherDisplay:10.37,2013-09-10 00:15:00,
2013-09-09 19:20:00,88.0,44.4,29.88,SSW,196,4.9,4.9,22,0.00,CLR,CLR,0.00,WeatherDisplay:10.37,2013-09-10 00:20:00,
2013-09-09 19:25:00,87.1,44.8,29.88,SSW,207,4.9,4.9,23,0.00,CLR,CLR,0.00,WeatherDisplay:10.37,2013-09-10 00:25:00,
2013-09-09 19:30:00,86.5,45.5,29.88,SSW,196,3.6,3.6,24,0.00,CLR,CLR,0.00,WeatherDisplay:10.37,2013-09-10 00:30:00,
2013-09-09 19:35:00,85.5,46.7,29.88,SSW,211,4.6,4.6,26,0.00,CLR,CLR,0.04,WeatherDisplay:10.37,2013-09-10 00:35:00,
2013-09-09 19:40:00,85.3,47.5,29.88,SSW,200,4.9,4.9,27,0.04,RA,RA,0.04,WeatherDisplay:10.37,2013-09-10 00:40:00,
2013-09-09 19:45:00,84.7,48.0,29.88,South,185,4.0,4.0,28,0.04,RA,RA,0.04,WeatherDisplay:10.37,2013-09-10 00:45:00,
2013-09-09 19:50:00,84.2,47.6,29.88,SSW,201,4.0,4.0,28,0.04,CLR,CLR,0.04,WeatherDisplay:10.37,2013-09-10 00:50:00,
2013-09-09 19:55:00,84.6,47.9,29.88,South,189,4.0,4.0,28,0.04,CLR,CLR,0.04,WeatherDisplay:10.37,2013-09-10 00:55:00,
2013-09-09 20:00:00,84.7,49.0,29.88,South,187,4.0,4.0,29,0.04,CLR,CLR,0.04,WeatherDisplay:10.37,2013-09-10 01:00:00,
2013-09-09 20:05:00,85.1,49.3,29.88,South,182,3.6,3.6,29,0.04,CLR,CLR,0.04,WeatherDisplay:10.37,2013-09-10 01:05:00,
2013-09-09 20:10:00,85.3,49.4,29.88,South,184,4.0,4.0,29,0.04,CLR,CLR,0.04,WeatherDisplay:10.37,2013-09-10 01:10:00,
2013-09-09 20:15:00,85.5,49.6,29.88,South,189,3.6,3.6,29,0.04,CLR,CLR,0.04,WeatherDisplay:10.37,2013-09-10 01:15:00,
2013-09-09 20:20:00,85.5,48.6,29.91,SSW,194,4.0,4.0,28,0.04,CLR,CLR,0.04,WeatherDisplay:10.37,2013-09-10 01:20:00,
2013-09-09 20:25:00,85.6,48.8,29.91,South,189,3.6,3.6,28,0.04,CLR,CLR,0.04,WeatherDisplay:10.37,2013-09-10 01:25:00,
2013-09-09 20:30:00,85.6,48.8,29.91,SSW,198,4.9,4.9,28,0.04,CLR,CLR,0.04,WeatherDisplay:10.37,2013-09-10 01:30:00,
2013-09-09 20:35:00,85.8,48.9,29.91,South,188,4.6,4.6,28,0.04,CLR,CLR,0.04,WeatherDisplay:10.37,2013-09-10 01:35:00,
2013-09-09 20:40:00,85.8,48.9,29.91,SSW,194,4.0,4.0,28,0.00,CLR,CLR,0.04,WeatherDisplay:10.37,2013-09-10 01:40:00,
2013-09-09 20:45:00,85.8,48.9,29.91,South,191,5.8,5.8,28,0.00,CLR,CLR,0.04,WeatherDisplay:10.37,2013-09-10 01:45:00,
2013-09-09 20:50:00,85.8,48.9,29.91,South,191,4.6,4.6,28,0.00,CLR,CLR,0.04,WeatherDisplay:10.37,2013-09-10 01:50:00,
2013-09-09 20:55:00,85.8,48.9,29.91,South,190,4.0,4.0,28,0.00,CLR,CLR,0.04,WeatherDisplay:10.37,2013-09-10 01:55:00,
2013-09-09 21:00:00,85.8,48.9,29.91,South,188,4.0,4.0,28,0.00,CLR,CLR,0.04,WeatherDisplay:10.37,2013-09-10 02:00:00,
2013-09-09 21:05:00,85.6,48.8,29.91,SSW,200,5.8,5.8,28,0.00,CLR,CLR,0.04,WeatherDisplay:10.37,2013-09-10 02:05:00,
2013-09-09 21:10:00,85.6,48.8,29.91,South,189,4.0,4.0,28,0.00,CLR,CLR,0.04,WeatherDisplay:10.37,2013-09-10 02:10:00,
2013-09-09 21:15:00,85.6,48.8,29.91,SSW,194,4.9,4.9,28,0.00,CLR,CLR,0.04,WeatherDisplay:10.37,2013-09-10 02:15:00,
2013-09-09 21:20:00,85.6,48.8,29.91,SSW,195,3.6,3.6,28,0.00,CLR,CLR,0.04,WeatherDisplay:10.37,2013-09-10 02:20:00,
2013-09-09 21:25:00,85.5,48.6,29.91,SSW,202,5.8,5.8,28,0.00,CLR,CLR,0.04,WeatherDisplay:10.37,2013-09-10 02:25:00,
2013-09-09 21:30:00,85.5,48.6,29.91,SSW,193,5.8,5.8,28,0.00,CLR,CLR,0.04,WeatherDisplay:10.37,2013-09-10 02:30:00,
2013-09-09 21:35:00,85.5,48.6,29.91,South,177,5.8,5.8,28,0.00,CLR,CLR,0.04,WeatherDisplay:10.37,2013-09-10 02:35:00,
2013-09-09 21:40:00,85.3,48.5,29.91,South,191,4.0,4.0,28,0.00,CLR,CLR,0.04,WeatherDisplay:10.37,2013-09-10 02:40:00,
2013-09-09 21:45:00,85.1,48.3,29.91,SSW,194,4.6,4.6,28,0.00,CLR,CLR,0.04,WeatherDisplay:10.37,2013-09-10 02:45:00,
2013-09-09 21:50:00,84.9,49.1,29.91,SSW,196,5.8,5.8,29,0.00,CLR,CLR,0.04,WeatherDisplay:10.37,2013-09-10 02:50:00,
2013-09-09 21:55:00,84.9,49.1,29.91,South,191,4.0,4.0,29,0.00,CLR,CLR,0.04,WeatherDisplay:10.37,2013-09-10 02:55:00,
2013-09-09 22:00:00,84.7,49.0,29.91,South,186,3.6,3.6,29,0.00,CLR,CLR,0.04,WeatherDisplay:10.37,2013-09-10 03:00:00,
2013-09-09 22:05:00,84.6,48.8,29.91,SSW,195,4.0,4.0,29,0.00,CLR,CLR,0.04,WeatherDisplay:10.37,2013-09-10 03:05:00,
2013-09-09 22:10:00,84.4,48.6,29.91,South,190,4.6,4.6,29,0.00,CLR,CLR,0.04,WeatherDisplay:10.37,2013-09-10 03:10:00,
2013-09-09 22:15:00,84.2,48.5,29.94,South,184,5.8,5.8,29,0.00,CLR,CLR,0.04,WeatherDisplay:10.37,2013-09-10 03:15:00,
2013-09-09 22:20:00,84.2,48.5,29.94,South,186,6.3,6.3,29,0.00,CLR,CLR,0.04,WeatherDisplay:10.37,2013-09-10 03:20:00,
2013-09-09 22:25:00,84.0,49.2,29.94,South,188,4.0,4.0,30,0.00,CLR,CLR,0.04,WeatherDisplay:10.37,2013-09-10 03:25:00,
2013-09-09 22:30:00,83.8,49.1,29.94,SSW,192,4.5,4.5,30,0.00,CLR,CLR,0.04,WeatherDisplay:10.37,2013-09-10 03:30:00,
2013-09-09 22:35:00,83.8,49.1,29.94,South,187,5.8,5.8,30,0.00,CLR,CLR,0.04,WeatherDisplay:10.37,2013-09-10 03:35:00,
2013-09-09 22:40:00,83.7,48.9,29.94,South,191,4.6,4.6,30,0.00,CLR,CLR,0.04,WeatherDisplay:10.37,2013-09-10 03:40:00,
2013-09-09 22:45:00,83.5,48.8,29.94,South,190,5.8,5.8,30,0.00,CLR,CLR,0.04,WeatherDisplay:10.37,2013-09-10 03:45:00,
2013-09-09 22:50:00,83.5,48.8,29.94,SSW,192,4.0,4.0,30,0.00,CLR,CLR,0.04,WeatherDisplay:10.37,2013-09-10 03:50:00,
2013-09-09 22:55:00,83.3,49.5,29.94,South,184,4.0,4.0,31,0.00,CLR,CLR,0.04,WeatherDisplay:10.37,2013-09-10 03:55:00,
2013-09-09 23:00:00,83.1,49.3,29.94,South,188,3.6,3.6,31,0.00,CLR,CLR,0.04,WeatherDisplay:10.37,2013-09-10 04:00:00,
2013-09-09 23:01:00,83.1,49.3,29.94,South,188,3.6,3.6,31,0.00,CLR,CLR,0.04,WeatherDisplay:10.37,2013-09-10 04:01:00,
2013-09-09 23:02:00,83.1,49.3,29.94,South,188,4.0,4.0,31,0.00,CLR,CLR,0.04,WeatherDisplay:10.37,2013-09-10 04:02:00,
2013-09-09 23:03:00,82.9,49.2,29.94,South,191,3.4,3.4,31,0.00,CLR,CLR,0.04,WeatherDisplay:10.37,2013-09-10 04:03:00,
2013-09-09 23:07:00,82.8,49.0,29.94,SSW,192,3.4,3.4,31,0.00,CLR,CLR,0.04,WeatherDisplay:10.37,2013-09-10 04:07:00,
2013-09-09 23:12:00,82.6,48.9,29.94,South,188,4.0,4.0,31,0.00,CLR,CLR,0.04,WeatherDisplay:10.37,2013-09-10 04:12:00,
2013-09-09 23:17:00,82.6,48.9,29.94,SSW,193,4.9,4.9,31,0.00,CLR,CLR,0.04,WeatherDisplay:10.37,2013-09-10 04:17:00,
2013-09-09 23:22:00,82.4,48.7,29.94,South,190,6.3,6.3,31,0.00,CLR,CLR,0.04,WeatherDisplay:10.37,2013-09-10 04:22:00,
2013-09-09 23:27:00,82.4,48.7,29.94,South,189,6.3,6.3,31,0.00,CLR,CLR,0.04,WeatherDisplay:10.37,2013-09-10 04:27:00,
2013-09-09 23:31:00,82.4,48.7,29.94,SSW,196,5.8,5.8,31,0.00,CLR,CLR,0.04,WeatherDisplay:10.37,2013-09-10 04:31:00,
2013-09-09 23:36:00,82.4,48.7,29.94,SSW,193,5.8,5.8,31,0.00,CLR,CLR,0.04,WeatherDisplay:10.37,2013-09-10 04:36:00,
2013-09-09 23:41:00,82.4,48.7,29.94,SSW,196,5.4,5.4,31,0.00,CLR,CLR,0.04,WeatherDisplay:10.37,2013-09-10 04:41:00,
2013-09-09 23:46:00,82.4,48.7,29.94,South,186,4.9,4.9,31,0.00,CLR,CLR,0.04,WeatherDisplay:10.37,2013-09-10 04:46:00,
2013-09-09 23:51:00,82.2,49.4,29.94,SSW,193,4.9,4.9,32,0.00,CLR,CLR,0.04,WeatherDisplay:10.37,2013-09-10 04:51:00,
2013-09-09 23:56:00,82.2,49.4,29.94,SSW,193,4.0,4.0,32,0.00,CLR,CLR,0.04,WeatherDisplay:10.37,2013-09-10 04:56:00,